Time;durP1;ratioP1;P1;durP2;ratioP2;P2;SDS_P1;SDS_P2;PMS_P1;PMS_P2;Temp;Humidity;BMP_temperature;BMP_pressure;BME280_temperature;BME280_humidity;BME280_pressure;Samples;Min_cycle;Max_cycle;Signal;HPM_P1;HPM_P2
2021/01/23 05:47:27;;;;;;;9.05;5.68;;;;;;;;;;6218804;22;1400133;-82
2021/01/23 05:52:10;;;;;;;10.57;5.70;;;;;;;;;;5110895;27;21245;-82
2021/01/23 05:54:35;;;;;;;8.82;6.30;;;;;;;;;;5111097;28;20034;-83
2021/01/23 05:57:01;;;;;;;10.20;7.25;;;;;;;;;;5104473;28;20119;-82
2021/01/23 05:59:27;;;;;;;10.88;6.78;;;;;;;;;;5110152;28;20016;-82
2021/01/23 06:01:53;;;;;;;14.70;6.95;;;;;;;;;;5115177;28;20023;-83
2021/01/23 06:04:18;;;;;;;11.65;6.80;;;;;;;;;;5114917;28;20024;-82
2021/01/23 06:06:45;;;;;;;13.68;7.00;;;;;;;;;;5116911;28;20154;-83
2021/01/23 06:09:30;;;;;;;13.18;7.20;;;;;;;;;;5119998;28;20509;-83
2021/01/23 06:11:56;;;;;;;12.30;6.80;;;;;;;;;;5109961;28;20058;-83
2021/01/23 06:14:34;;;;;;;10.82;6.97;;;;;;;;;;5114738;28;20059;-83
2021/01/23 06:16:59;;;;;;;13.10;6.53;;;;;;;;;;5114644;28;20748;-83
2021/01/23 06:19:25;;;;;;;12.85;8.00;;;;;;;;;;5110511;28;20032;-83
2021/01/23 06:21:52;;;;;;;9.15;6.18;;;;;;;;;;5110280;28;20016;-82
2021/01/23 06:24:18;;;;;;;10.77;6.05;;;;;;;;;;5122483;28;20063;-82
2021/01/23 06:26:53;;;;;;;8.93;6.05;;;;;;;;;;5121257;28;20050;-82
2021/01/23 06:29:31;;;;;;;12.65;5.97;;;;;;;;;;5111909;28;20046;-83
2021/01/23 06:31:57;;;;;;;12.45;6.55;;;;;;;;;;5106521;28;20024;-83
2021/01/23 06:34:24;;;;;;;8.25;5.80;;;;;;;;;;5113034;28;20062;-83
2021/01/23 06:37:10;;;;;;;11.50;6.38;;;;;;;;;;5109252;28;20024;-83
2021/01/23 06:39:56;;;;;;;9.38;5.95;;;;;;;;;;5106017;28;20039;-83
2021/01/23 06:42:22;;;;;;;17.90;5.97;;;;;;;;;;5113485;28;20031;-83
2021/01/23 06:47:06;;;;;;;11.02;6.88;;;;;;;;;;5102892;27;20409;-83
2021/01/23 06:49:40;;;;;;;17.42;8.88;;;;;;;;;;5094919;28;20406;-83
2021/01/23 06:52:06;;;;;;;12.05;7.00;;;;;;;;;;5096457;28;20039;-83
2021/01/23 06:54:32;;;;;;;9.75;6.40;;;;;;;;;;5094612;28;20036;-83
2021/01/23 06:56:58;;;;;;;11.20;6.13;;;;;;;;;;5097695;28;20015;-83
2021/01/23 06:59:25;;;;;;;9.82;6.25;;;;;;;;;;5093695;28;20063;-83
2021/01/23 07:01:56;;;;;;;11.85;6.68;;;;;;;;;;5103053;28;20107;-83
2021/01/23 07:04:21;;;;;;;10.68;6.45;;;;;;;;;;5102396;28;20098;-83
2021/01/23 07:06:47;;;;;;;12.15;6.47;;;;;;;;;;5097594;28;20023;-83
2021/01/23 07:09:13;;;;;;;10.30;6.13;;;;;;;;;;5104152;28;20115;-83
2021/01/23 07:11:39;;;;;;;13.23;7.40;;;;;;;;;;5103839;28;19919;-83
2021/01/23 07:14:06;;;;;;;11.95;7.28;;;;;;;;;;5096422;28;20024;-82
2021/01/23 07:16:32;;;;;;;10.93;6.15;;;;;;;;;;5101461;28;20028;-83
2021/01/23 07:19:00;;;;;;;9.98;6.65;;;;;;;;;;5097005;28;20059;-83
2021/01/23 07:21:26;;;;;;;11.65;6.13;;;;;;;;;;5092423;28;20104;-83
2021/01/23 07:23:54;;;;;;;8.18;5.07;;;;;;;;;;5096598;28;20019;-83
2021/01/23 07:26:20;;;;;;;10.00;6.32;;;;;;;;;;5094920;28;20023;-83
2021/01/23 07:28:56;;;;;;;8.50;5.65;;;;;;;;;;5090459;28;20020;-84
2021/01/23 07:33:39;;;;;;;12.68;5.60;;;;;;;;;;5123297;27;20861;-84
2021/01/23 07:36:05;;;;;;;8.30;5.05;;;;;;;;;;5122318;27;20102;-84
2021/01/23 07:38:30;;;;;;;7.72;5.32;;;;;;;;;;5118042;28;20495;-84
2021/01/23 07:40:56;;;;;;;6.93;4.88;;;;;;;;;;5109187;28;20039;-83
2021/01/23 07:43:22;;;;;;;9.18;5.63;;;;;;;;;;5103611;28;20024;-82
2021/01/23 07:45:48;;;;;;;7.85;4.72;;;;;;;;;;5103562;28;20020;-83
2021/01/23 07:48:14;;;;;;;6.00;4.03;;;;;;;;;;5103666;28;20020;-83
2021/01/23 07:50:41;;;;;;;10.00;5.45;;;;;;;;;;5096844;28;20024;-83
2021/01/23 07:53:16;;;;;;;8.00;4.68;;;;;;;;;;5100797;28;20391;-82
2021/01/23 07:55:42;;;;;;;9.20;4.90;;;;;;;;;;5098331;28;20028;-83
2021/01/23 07:58:08;;;;;;;6.78;4.50;;;;;;;;;;5109112;28;20012;-84
2021/01/23 08:00:34;;;;;;;7.55;4.38;;;;;;;;;;5109195;28;20368;-83
2021/01/23 08:03:00;;;;;;;10.38;5.03;;;;;;;;;;5100126;28;20024;-82
2021/01/23 08:05:44;;;;;;;8.23;4.53;;;;;;;;;;5099054;28;20032;-83
2021/01/23 08:08:11;;;;;;;7.90;4.32;;;;;;;;;;5101350;28;20024;-83
2021/01/23 08:10:37;;;;;;;8.20;3.60;;;;;;;;;;5103896;28;20106;-83
2021/01/23 08:13:07;;;;;;;8.55;4.70;;;;;;;;;;5105216;28;20016;-82
2021/01/23 08:15:34;;;;;;;8.38;4.85;;;;;;;;;;5102796;28;20036;-82
2021/01/23 08:18:00;;;;;;;10.13;5.60;;;;;;;;;;5101483;27;20480;-82
2021/01/23 08:20:30;;;;;;;7.70;5.10;;;;;;;;;;5101260;28;20027;-82
2021/01/23 08:23:10;;;;;;;7.90;5.10;;;;;;;;;;5102231;28;20015;-82
2021/01/23 08:25:37;;;;;;;7.43;4.40;;;;;;;;;;5104872;28;20066;-82
2021/01/23 08:28:04;;;;;;;10.05;4.47;;;;;;;;;;5105647;28;20019;-82
2021/01/23 08:30:30;;;;;;;7.75;4.32;;;;;;;;;;5105702;28;20027;-82
2021/01/23 08:32:55;;;;;;;9.00;4.35;;;;;;;;;;5109370;27;20046;-83
2021/01/23 08:35:21;;;;;;;5.30;3.63;;;;;;;;;;5103597;28;20020;-84
2021/01/23 08:37:50;;;;;;;6.65;4.40;;;;;;;;;;5102307;28;20016;-83
2021/01/23 08:40:22;;;;;;;8.52;4.13;;;;;;;;;;5102806;28;20018;-83
2021/01/23 08:42:48;;;;;;;7.93;4.03;;;;;;;;;;5102219;28;20028;-82
2021/01/23 08:45:14;;;;;;;7.55;4.55;;;;;;;;;;5088091;28;20103;-82
2021/01/23 08:47:40;;;;;;;5.80;4.07;;;;;;;;;;5087737;28;20024;-83
2021/01/23 08:50:06;;;;;;;8.57;4.38;;;;;;;;;;5085282;28;20026;-82
2021/01/23 08:52:32;;;;;;;9.48;4.88;;;;;;;;;;5082518;28;20035;-82
2021/01/23 08:54:58;;;;;;;11.25;7.75;;;;;;;;;;5089067;28;20020;-83
2021/01/23 08:57:23;;;;;;;17.95;10.55;;;;;;;;;;5084585;28;20456;-83
2021/01/23 08:59:49;;;;;;;22.15;12.07;;;;;;;;;;5084885;28;20027;-83
2021/01/23 09:02:15;;;;;;;51.60;27.83;;;;;;;;;;5088344;28;20025;-81
2021/01/23 09:04:41;;;;;;;48.05;26.98;;;;;;;;;;5088597;28;20111;-82
2021/01/23 09:09:25;;;;;;;12.13;6.97;;;;;;;;;;5119624;27;20935;-80
2021/01/23 09:11:51;;;;;;;7.22;4.95;;;;;;;;;;5096855;27;20031;-79
2021/01/23 09:14:17;;;;;;;9.20;4.88;;;;;;;;;;5107440;28;20024;-80
2021/01/23 09:16:42;;;;;;;9.35;5.80;;;;;;;;;;5109005;28;20484;-80
2021/01/23 09:19:08;;;;;;;9.35;5.47;;;;;;;;;;5105988;28;20033;-80
2021/01/23 09:21:34;;;;;;;11.32;6.93;;;;;;;;;;5099494;28;20027;-79
2021/01/23 09:24:00;;;;;;;7.32;5.18;;;;;;;;;;5110408;27;20060;-80
2021/01/23 09:26:25;;;;;;;6.93;4.70;;;;;;;;;;5102446;28;20054;-79
2021/01/23 09:28:51;;;;;;;6.38;4.63;;;;;;;;;;5112629;28;20016;-80
2021/01/23 09:31:17;;;;;;;8.70;4.50;;;;;;;;;;5099869;27;20103;-80
2021/01/23 09:33:42;;;;;;;7.07;4.90;;;;;;;;;;5112523;28;20015;-80
2021/01/23 09:36:08;;;;;;;7.75;4.32;;;;;;;;;;5105972;27;20022;-80
2021/01/23 09:38:34;;;;;;;5.93;3.45;;;;;;;;;;5105684;28;20031;-80
2021/01/23 09:40:59;;;;;;;5.85;3.33;;;;;;;;;;5108315;28;20023;-80
2021/01/23 09:43:25;;;;;;;6.53;3.80;;;;;;;;;;5103727;28;20016;-80
2021/01/23 09:45:51;;;;;;;6.25;3.70;;;;;;;;;;5097624;28;20372;-80
2021/01/23 09:48:19;;;;;;;7.88;4.70;;;;;;;;;;5106605;28;20028;-80
2021/01/23 09:50:45;;;;;;;6.88;4.90;;;;;;;;;;5118531;28;20616;-80
2021/01/23 09:53:10;;;;;;;11.40;6.15;;;;;;;;;;5114236;28;20015;-80
2021/01/23 09:55:36;;;;;;;9.93;5.53;;;;;;;;;;5116827;28;20094;-80
2021/01/23 09:58:02;;;;;;;11.40;7.10;;;;;;;;;;5103731;28;20114;-80
2021/01/23 10:00:28;;;;;;;7.60;5.07;;;;;;;;;;5108011;28;20028;-78
2021/01/23 10:02:53;;;;;;;8.55;5.00;;;;;;;;;;5113186;28;20462;-81
2021/01/23 10:05:19;;;;;;;7.70;5.03;;;;;;;;;;5106944;28;20465;-80
2021/01/23 10:07:45;;;;;;;11.05;7.53;;;;;;;;;;5115379;28;20602;-80
2021/01/23 10:10:11;;;;;;;10.40;6.95;;;;;;;;;;5106889;27;20110;-81
2021/01/23 10:12:36;;;;;;;9.52;6.68;;;;;;;;;;5099277;28;20107;-80
2021/01/23 10:15:02;;;;;;;18.30;11.15;;;;;;;;;;5109784;28;20098;-81
2021/01/23 10:17:28;;;;;;;14.02;8.77;;;;;;;;;;5101678;28;20417;-81
2021/01/23 10:19:54;;;;;;;18.92;10.55;;;;;;;;;;5110531;28;20022;-80
2021/01/23 10:22:19;;;;;;;13.63;8.23;;;;;;;;;;5086825;28;20115;-81
2021/01/23 10:24:45;;;;;;;11.32;7.93;;;;;;;;;;5095731;28;20038;-82
2021/01/23 10:27:11;;;;;;;9.18;6.82;;;;;;;;;;5098949;28;20047;-82
2021/01/23 10:29:37;;;;;;;10.10;6.32;;;;;;;;;;5087786;28;20076;-82
2021/01/23 10:32:03;;;;;;;10.70;7.15;;;;;;;;;;5092921;28;20025;-82
2021/01/23 10:34:29;;;;;;;8.52;5.88;;;;;;;;;;5095668;28;20028;-82
2021/01/23 10:36:54;;;;;;;10.23;6.88;;;;;;;;;;5090440;28;20016;-82
2021/01/23 10:39:20;;;;;;;7.95;5.45;;;;;;;;;;5095263;28;20064;-82
2021/01/23 10:41:46;;;;;;;9.75;5.90;;;;;;;;;;5097212;28;20079;-82
2021/01/23 10:44:11;;;;;;;8.90;5.50;;;;;;;;;;5091186;28;20112;-82
2021/01/23 10:46:37;;;;;;;9.40;5.95;;;;;;;;;;5092546;28;20380;-81
2021/01/23 10:49:03;;;;;;;8.73;5.68;;;;;;;;;;5093293;28;20028;-84
2021/01/23 10:51:29;;;;;;;10.82;6.22;;;;;;;;;;5089575;28;20048;-84
2021/01/23 10:53:55;;;;;;;9.93;5.85;;;;;;;;;;5090630;28;20110;-84
2021/01/23 10:56:20;;;;;;;9.80;5.07;;;;;;;;;;5092605;28;20083;-84
2021/01/23 10:58:46;;;;;;;11.35;6.82;;;;;;;;;;5093365;28;20043;-84
2021/01/23 11:01:12;;;;;;;11.82;7.18;;;;;;;;;;5088436;28;20395;-84
2021/01/23 11:03:37;;;;;;;15.45;8.82;;;;;;;;;;5097192;28;20022;-84
2021/01/23 11:06:03;;;;;;;9.73;6.50;;;;;;;;;;5094017;28;20036;-83
2021/01/23 11:08:29;;;;;;;10.75;6.72;;;;;;;;;;5093520;28;20062;-84
2021/01/23 11:10:55;;;;;;;10.30;7.22;;;;;;;;;;5083786;28;20044;-84
2021/01/23 11:13:20;;;;;;;12.45;6.75;;;;;;;;;;5082561;28;20107;-84
2021/01/23 11:15:46;;;;;;;13.85;8.25;;;;;;;;;;5089176;28;20028;-83
2021/01/23 11:18:12;;;;;;;12.13;7.55;;;;;;;;;;5092049;28;20107;-83
2021/01/23 11:20:37;;;;;;;17.27;9.23;;;;;;;;;;5093013;28;20391;-84
2021/01/23 11:23:03;;;;;;;12.27;7.18;;;;;;;;;;5091097;28;20032;-83
2021/01/23 11:25:29;;;;;;;10.55;5.78;;;;;;;;;;5085166;28;20032;-80
2021/01/23 11:27:55;;;;;;;11.07;6.63;;;;;;;;;;5092319;28;20021;-80
2021/01/23 11:30:21;;;;;;;9.10;6.25;;;;;;;;;;5082963;28;20500;-80
2021/01/23 11:32:47;;;;;;;7.28;5.28;;;;;;;;;;5086379;28;20085;-80
2021/01/23 11:35:13;;;;;;;5.28;3.28;;;;;;;;;;5090006;28;20350;-80
2021/01/23 11:37:39;;;;;;;10.07;3.53;;;;;;;;;;5096664;28;20020;-80
2021/01/23 11:40:05;;;;;;;7.07;3.60;;;;;;;;;;5092606;28;20115;-79
2021/01/23 11:44:49;;;;;;;11.65;5.90;;;;;;;;;;5092584;28;20379;-77
2021/01/23 11:47:14;;;;;;;9.88;6.50;;;;;;;;;;5098707;28;20024;-79
2021/01/23 11:49:40;;;;;;;7.88;4.65;;;;;;;;;;5093055;28;20021;-79
2021/01/23 11:52:06;;;;;;;9.20;4.75;;;;;;;;;;5071904;28;20056;-79
2021/01/23 11:54:32;;;;;;;6.13;3.80;;;;;;;;;;5089956;28;20043;-78
2021/01/23 11:56:58;;;;;;;6.07;2.88;;;;;;;;;;5091732;28;20012;-78
2021/01/23 11:59:24;;;;;;;6.95;4.13;;;;;;;;;;5078827;28;20519;-78
2021/01/23 12:01:49;;;;;;;7.63;4.55;;;;;;;;;;5071917;28;20021;-79
2021/01/23 12:04:17;;;;;;;5.15;3.22;;;;;;;;;;5067191;28;20039;-78
2021/01/23 12:06:43;;;;;;;6.72;3.00;;;;;;;;;;5076873;28;20025;-79
2021/01/23 12:09:08;;;;;;;4.38;2.72;;;;;;;;;;5071546;28;20055;-79
2021/01/23 12:11:34;;;;;;;5.70;2.42;;;;;;;;;;5072491;28;20092;-79
2021/01/23 12:14:00;;;;;;;4.45;2.20;;;;;;;;;;5078292;28;20030;-79
2021/01/23 12:16:26;;;;;;;7.10;3.03;;;;;;;;;;5079985;28;20016;-79
2021/01/23 12:18:52;;;;;;;4.43;2.30;;;;;;;;;;5072146;28;20048;-78
2021/01/23 12:21:18;;;;;;;4.22;2.40;;;;;;;;;;5074980;28;20572;-79
2021/01/23 12:23:44;;;;;;;8.35;3.00;;;;;;;;;;5074972;28;20132;-78
2021/01/23 12:26:09;;;;;;;8.57;2.42;;;;;;;;;;5073012;28;20104;-79
2021/01/23 12:28:35;;;;;;;4.13;1.80;;;;;;;;;;5071010;28;20033;-78
2021/01/23 12:31:01;;;;;;;4.93;2.38;;;;;;;;;;5081736;28;20026;-79
2021/01/23 12:33:27;;;;;;;4.15;2.03;;;;;;;;;;5079097;28;20027;-78
2021/01/23 12:35:52;;;;;;;4.07;2.72;;;;;;;;;;5073765;28;20027;-79
2021/01/23 12:38:19;;;;;;;13.48;8.60;;;;;;;;;;5072326;28;20021;-83
2021/01/23 12:40:45;;;;;;;8.10;4.72;;;;;;;;;;5076350;28;20028;-80
2021/01/23 12:43:10;;;;;;;6.88;3.80;;;;;;;;;;5075026;28;20400;-82
2021/01/23 12:45:36;;;;;;;7.80;3.17;;;;;;;;;;5077993;28;20032;-82
2021/01/23 12:48:02;;;;;;;7.53;2.95;;;;;;;;;;5078548;28;20063;-82
2021/01/23 12:50:27;;;;;;;3.38;1.92;;;;;;;;;;5084657;28;20024;-82
2021/01/23 12:52:53;;;;;;;6.05;2.17;;;;;;;;;;5083265;28;20024;-84
2021/01/23 12:55:19;;;;;;;4.47;2.38;;;;;;;;;;5065050;28;20036;-82
2021/01/23 12:57:44;;;;;;;13.70;6.97;;;;;;;;;;5066226;28;20616;-83
2021/01/23 13:00:11;;;;;;;12.55;6.03;;;;;;;;;;5048201;28;20017;-82
2021/01/23 13:02:37;;;;;;;10.73;5.22;;;;;;;;;;5071905;28;20012;-82
2021/01/23 13:05:03;;;;;;;6.95;4.00;;;;;;;;;;5068834;28;20016;-82
2021/01/23 13:07:29;;;;;;;5.70;2.95;;;;;;;;;;5058394;28;20021;-81
2021/01/23 13:12:12;;;;;;;12.40;5.18;;;;;;;;;;5092162;27;20389;-82
2021/01/23 13:14:38;;;;;;;11.38;5.63;;;;;;;;;;5082084;28;20037;-82
2021/01/23 13:17:07;;;;;;;10.65;5.45;;;;;;;;;;5085881;28;20123;-84
2021/01/23 13:19:32;;;;;;;24.65;13.75;;;;;;;;;;5092763;28;20017;-81
2021/01/23 13:21:58;;;;;;;8.30;3.90;;;;;;;;;;5097222;28;20034;-81
2021/01/23 13:24:23;;;;;;;6.28;3.70;;;;;;;;;;5098346;28;20119;-82
2021/01/23 13:26:49;;;;;;;8.18;4.72;;;;;;;;;;5096362;28;20688;-81
2021/01/23 13:29:15;;;;;;;7.63;4.50;;;;;;;;;;5097753;28;20031;-80
2021/01/23 13:31:41;;;;;;;6.80;3.63;;;;;;;;;;5099274;28;20020;-80
2021/01/23 13:34:06;;;;;;;4.55;2.40;;;;;;;;;;5083813;28;20040;-81
2021/01/23 13:36:32;;;;;;;6.03;2.75;;;;;;;;;;5086073;28;20020;-80
2021/01/23 13:38:58;;;;;;;7.93;3.55;;;;;;;;;;5090196;28;20027;-80
2021/01/23 13:41:23;;;;;;;6.18;3.00;;;;;;;;;;5091472;28;20460;-81
2021/01/23 13:43:49;;;;;;;5.75;2.90;;;;;;;;;;5090892;28;19983;-81
2021/01/23 13:46:15;;;;;;;5.07;2.38;;;;;;;;;;5088249;28;20115;-82
2021/01/23 13:48:40;;;;;;;7.32;2.45;;;;;;;;;;5084835;28;20110;-82
2021/01/23 13:51:06;;;;;;;4.68;2.05;;;;;;;;;;5086556;28;20356;-80
2021/01/23 13:53:32;;;;;;;5.43;3.10;;;;;;;;;;5087894;28;20115;-82
2021/01/23 13:55:57;;;;;;;7.35;3.03;;;;;;;;;;5091184;28;20380;-80
2021/01/23 13:58:23;;;;;;;3.33;1.70;;;;;;;;;;5079678;28;20027;-82
2021/01/23 14:00:50;;;;;;;3.80;2.03;;;;;;;;;;5086859;28;20020;-81
2021/01/23 14:03:16;;;;;;;5.93;2.28;;;;;;;;;;5080708;28;20063;-81
2021/01/23 14:05:42;;;;;;;4.25;2.20;;;;;;;;;;5079635;28;20115;-81
2021/01/23 14:08:07;;;;;;;6.70;2.72;;;;;;;;;;5079278;28;20067;-81
2021/01/23 14:10:33;;;;;;;5.93;2.97;;;;;;;;;;5081504;28;20116;-82
2021/01/23 14:12:59;;;;;;;6.40;2.28;;;;;;;;;;5078812;28;20028;-81
2021/01/23 14:17:42;;;;;;;4.93;2.15;;;;;;;;;;5090283;27;20406;-80
2021/01/23 14:20:08;;;;;;;6.63;2.58;;;;;;;;;;5095423;28;20476;-77
2021/01/23 14:22:34;;;;;;;4.57;2.28;;;;;;;;;;5093887;28;20035;-81
2021/01/23 14:25:00;;;;;;;3.00;1.90;;;;;;;;;;5096862;28;20028;-80
2021/01/23 14:27:25;;;;;;;4.03;2.22;;;;;;;;;;5066653;28;20111;-80
2021/01/23 14:29:51;;;;;;;10.90;5.70;;;;;;;;;;5078892;28;20028;-79
2021/01/23 14:32:18;;;;;;;9.13;4.10;;;;;;;;;;5078872;28;20020;-79
2021/01/23 14:34:44;;;;;;;4.90;2.65;;;;;;;;;;5075928;28;20043;-80
2021/01/23 14:37:10;;;;;;;4.85;2.30;;;;;;;;;;5075048;28;20059;-81
2021/01/23 14:39:36;;;;;;;4.63;2.10;;;;;;;;;;5068521;28;20116;-80
2021/01/23 14:42:02;;;;;;;4.20;2.33;;;;;;;;;;5076404;28;20023;-80
2021/01/23 14:44:28;;;;;;;4.00;2.13;;;;;;;;;;5079240;28;20016;-79
2021/01/23 14:46:54;;;;;;;4.38;2.45;;;;;;;;;;5071840;28;20023;-79
2021/01/23 14:49:19;;;;;;;4.05;2.50;;;;;;;;;;5079860;28;20035;-80
2021/01/23 14:51:45;;;;;;;6.57;2.55;;;;;;;;;;5082447;28;20032;-80
2021/01/23 14:54:10;;;;;;;6.35;2.83;;;;;;;;;;5053206;28;20055;-80
2021/01/23 14:56:36;;;;;;;5.13;2.60;;;;;;;;;;5058946;28;20024;-80
2021/01/23 14:59:03;;;;;;;4.53;2.50;;;;;;;;;;5070181;28;20099;-80
2021/01/23 15:01:30;;;;;;;6.43;2.35;;;;;;;;;;5072120;28;20043;-80
2021/01/23 15:03:55;;;;;;;4.13;2.20;;;;;;;;;;5056632;28;20116;-80
2021/01/23 15:06:21;;;;;;;5.57;2.28;;;;;;;;;;5052048;28;20029;-80
2021/01/23 15:08:47;;;;;;;6.88;4.00;;;;;;;;;;5076803;28;20103;-81
2021/01/23 15:11:12;;;;;;;3.90;2.40;;;;;;;;;;5075768;28;20095;-80
2021/01/23 15:13:38;;;;;;;5.57;2.22;;;;;;;;;;5077283;28;20451;-80
2021/01/23 15:16:06;;;;;;;3.38;1.95;;;;;;;;;;5067274;28;20381;-80
2021/01/23 15:18:31;;;;;;;5.05;2.03;;;;;;;;;;5067946;28;20492;-81
2021/01/23 15:21:00;;;;;;;4.70;2.28;;;;;;;;;;5071453;28;20030;-80
2021/01/23 15:23:26;;;;;;;5.25;2.53;;;;;;;;;;5070208;28;20020;-79
2021/01/23 15:25:51;;;;;;;5.07;2.95;;;;;;;;;;5077746;28;20111;-82
2021/01/23 15:28:17;;;;;;;5.25;2.70;;;;;;;;;;5066905;28;20028;-81
2021/01/23 15:30:42;;;;;;;10.57;3.50;;;;;;;;;;5059019;28;20030;-79
2021/01/23 15:33:08;;;;;;;5.88;2.55;;;;;;;;;;5060102;28;20502;-81
2021/01/23 15:35:34;;;;;;;6.80;2.75;;;;;;;;;;5069051;28;20441;-81
2021/01/23 15:38:00;;;;;;;9.43;3.40;;;;;;;;;;5042954;28;20463;-81
2021/01/23 15:40:26;;;;;;;6.88;2.75;;;;;;;;;;5062832;28;21271;-81
2021/01/23 15:42:51;;;;;;;7.90;3.15;;;;;;;;;;5062324;28;20100;-81
2021/01/23 15:45:17;;;;;;;12.85;5.75;;;;;;;;;;5065198;28;20541;-81
2021/01/23 15:47:43;;;;;;;22.13;8.55;;;;;;;;;;5061729;28;20032;-82
2021/01/23 15:50:09;;;;;;;8.98;5.15;;;;;;;;;;5049202;28;20109;-81
2021/01/23 15:52:35;;;;;;;7.72;3.50;;;;;;;;;;5059968;28;20033;-81
2021/01/23 15:55:01;;;;;;;9.23;4.05;;;;;;;;;;5064393;28;20107;-81
2021/01/23 15:57:26;;;;;;;14.80;7.90;;;;;;;;;;5057209;28;20036;-81
2021/01/23 15:59:52;;;;;;;13.93;6.22;;;;;;;;;;5055347;28;20033;-80
2021/01/23 16:02:17;;;;;;;20.20;7.97;;;;;;;;;;5050700;28;20021;-79
2021/01/23 16:04:43;;;;;;;35.05;12.38;;;;;;;;;;5053624;28;20029;-81
2021/01/23 16:07:09;;;;;;;15.23;6.47;;;;;;;;;;5036836;28;20116;-80
2021/01/23 16:09:35;;;;;;;11.18;5.40;;;;;;;;;;5048337;28;20033;-81
2021/01/23 16:12:01;;;;;;;16.75;8.45;;;;;;;;;;5041168;28;20127;-80
2021/01/23 16:14:29;;;;;;;18.58;9.30;;;;;;;;;;5047941;28;20056;-79
2021/01/23 16:16:55;;;;;;;25.50;11.40;;;;;;;;;;5038763;28;20564;-78
2021/01/23 16:19:20;;;;;;;15.73;8.00;;;;;;;;;;5053056;28;20031;-80
2021/01/23 16:21:46;;;;;;;13.32;6.68;;;;;;;;;;5057848;28;20481;-80
2021/01/23 16:24:11;;;;;;;12.77;6.78;;;;;;;;;;5047020;28;20493;-79
2021/01/23 16:26:38;;;;;;;18.85;8.43;;;;;;;;;;5051995;28;20485;-80
2021/01/23 16:29:03;;;;;;;17.70;8.57;;;;;;;;;;5053739;28;20423;-82
2021/01/23 16:31:29;;;;;;;7.35;4.97;;;;;;;;;;5055134;28;20025;-79
2021/01/23 16:33:55;;;;;;;6.18;3.42;;;;;;;;;;5054191;28;20146;-79
2021/01/23 16:36:20;;;;;;;7.38;3.47;;;;;;;;;;5048514;28;20052;-79
2021/01/23 16:38:46;;;;;;;19.67;8.10;;;;;;;;;;5042291;28;20037;-79
2021/01/23 16:41:12;;;;;;;10.40;4.68;;;;;;;;;;5053633;28;20067;-79
2021/01/23 16:43:38;;;;;;;12.90;6.47;;;;;;;;;;5042068;28;20025;-80
2021/01/23 16:46:06;;;;;;;13.13;7.05;;;;;;;;;;5051893;28;20025;-80
2021/01/23 16:48:31;;;;;;;9.50;4.40;;;;;;;;;;5050977;28;20030;-79
2021/01/23 16:50:57;;;;;;;11.05;5.25;;;;;;;;;;5050663;28;20060;-80
2021/01/23 16:53:23;;;;;;;11.35;4.97;;;;;;;;;;5044616;28;20029;-80
2021/01/23 16:55:48;;;;;;;6.65;3.53;;;;;;;;;;5043522;28;20021;-80
2021/01/23 16:58:14;;;;;;;6.38;3.35;;;;;;;;;;5031355;28;20059;-81
2021/01/23 17:00:40;;;;;;;7.65;3.50;;;;;;;;;;5044637;28;20035;-79
2021/01/23 17:03:05;;;;;;;6.20;2.92;;;;;;;;;;5026589;28;20092;-79
2021/01/23 17:05:31;;;;;;;5.15;2.60;;;;;;;;;;5050239;28;20013;-80
2021/01/23 17:07:57;;;;;;;5.63;2.60;;;;;;;;;;5049590;28;20073;-79
2021/01/23 17:10:22;;;;;;;11.52;4.07;;;;;;;;;;5048659;28;20040;-81
2021/01/23 17:12:49;;;;;;;8.52;3.30;;;;;;;;;;5047111;28;20031;-79
2021/01/23 17:15:15;;;;;;;4.72;2.30;;;;;;;;;;5042645;28;20468;-82
2021/01/23 17:17:41;;;;;;;4.05;2.00;;;;;;;;;;5042773;28;20029;-79
2021/01/23 17:20:07;;;;;;;5.65;2.00;;;;;;;;;;5048138;28;20040;-79
2021/01/23 17:22:36;;;;;;;5.13;1.80;;;;;;;;;;5047373;28;20053;-81
2021/01/23 17:25:03;;;;;;;8.43;2.50;;;;;;;;;;5049324;28;20055;-79
2021/01/23 17:27:28;;;;;;;5.53;2.58;;;;;;;;;;5046670;28;20076;-81
2021/01/23 17:29:54;;;;;;;5.15;2.53;;;;;;;;;;5051053;28;20469;-80
2021/01/23 17:34:40;;;;;;;5.88;1.90;;;;;;;;;;5108831;27;788335;-79
2021/01/23 17:37:07;;;;;;;5.82;2.30;;;;;;;;;;5101803;28;20410;-80
2021/01/23 17:39:33;;;;;;;4.15;1.98;;;;;;;;;;5098706;28;20036;-81
2021/01/23 17:41:59;;;;;;;4.53;2.55;;;;;;;;;;5094516;28;20114;-80
2021/01/23 17:44:24;;;;;;;6.82;2.92;;;;;;;;;;5101146;28;20030;-79
2021/01/23 17:46:51;;;;;;;5.07;2.72;;;;;;;;;;5101377;28;20028;-80
2021/01/23 17:49:16;;;;;;;3.25;1.58;;;;;;;;;;5099743;28;20391;-80
2021/01/23 17:51:42;;;;;;;5.07;2.50;;;;;;;;;;5096245;28;20036;-81
2021/01/23 17:54:07;;;;;;;24.33;12.85;;;;;;;;;;5101279;28;20115;-80
2021/01/23 17:56:33;;;;;;;11.43;6.88;;;;;;;;;;5100609;28;20020;-80
2021/01/23 17:58:59;;;;;;;12.45;6.03;;;;;;;;;;5097270;28;20030;-80
2021/01/23 18:01:24;;;;;;;5.68;3.47;;;;;;;;;;5095570;28;20059;-80
2021/01/23 18:03:52;;;;;;;5.05;2.15;;;;;;;;;;5096174;28;20040;-82
2021/01/23 18:06:18;;;;;;;6.10;2.42;;;;;;;;;;5086834;28;20443;-82
2021/01/23 18:08:44;;;;;;;8.05;3.08;;;;;;;;;;5087823;28;20114;-81
2021/01/23 18:11:13;;;;;;;3.70;1.75;;;;;;;;;;5096167;28;20032;-79
2021/01/23 18:13:42;;;;;;;3.50;1.30;;;;;;;;;;5095256;28;20054;-80
2021/01/23 18:16:08;;;;;;;5.97;1.65;;;;;;;;;;5097410;28;20099;-84
2021/01/23 18:18:34;;;;;;;4.43;1.67;;;;;;;;;;5096871;28;20396;-79
2021/01/23 18:20:59;;;;;;;3.42;1.63;;;;;;;;;;5084415;28;20028;-80
2021/01/23 18:23:25;;;;;;;2.85;1.33;;;;;;;;;;5091730;28;20078;-80
2021/01/23 18:25:52;;;;;;;4.93;2.25;;;;;;;;;;5090604;28;20050;-79
2021/01/23 18:28:18;;;;;;;3.30;1.55;;;;;;;;;;5096809;28;20361;-80
2021/01/23 18:30:43;;;;;;;3.65;1.73;;;;;;;;;;5094784;28;20112;-80
2021/01/23 18:33:11;;;;;;;3.67;1.85;;;;;;;;;;5094562;28;20031;-82
2021/01/23 18:35:36;;;;;;;4.35;1.80;;;;;;;;;;5098546;28;20617;-80
2021/01/23 18:38:02;;;;;;;3.28;1.85;;;;;;;;;;5098579;28;20036;-79
2021/01/23 18:40:28;;;;;;;3.50;1.83;;;;;;;;;;5101023;28;20020;-80
2021/01/23 18:42:53;;;;;;;7.18;2.47;;;;;;;;;;5101213;28;20103;-81
2021/01/23 18:45:19;;;;;;;3.30;1.83;;;;;;;;;;5090962;28;20028;-80
2021/01/23 18:47:45;;;;;;;4.72;1.65;;;;;;;;;;5084875;28;20686;-80
2021/01/23 18:50:11;;;;;;;4.47;1.27;;;;;;;;;;5087119;28;20062;-80
2021/01/23 18:52:38;;;;;;;3.30;1.58;;;;;;;;;;5093261;28;20438;-80
2021/01/23 18:55:04;;;;;;;3.08;1.20;;;;;;;;;;5083308;28;20027;-80
2021/01/23 18:57:30;;;;;;;3.15;1.38;;;;;;;;;;5084575;28;20051;-81
2021/01/23 18:59:56;;;;;;;4.43;1.35;;;;;;;;;;5083743;28;20012;-79
2021/01/23 19:02:21;;;;;;;2.83;1.20;;;;;;;;;;5081935;28;20115;-79
2021/01/23 19:04:47;;;;;;;3.35;1.10;;;;;;;;;;5082067;28;20036;-79
2021/01/23 19:07:13;;;;;;;3.90;1.40;;;;;;;;;;5078222;28;20036;-80
2021/01/23 19:09:38;;;;;;;5.65;1.33;;;;;;;;;;5087346;28;20132;-80
2021/01/23 19:12:04;;;;;;;2.75;1.27;;;;;;;;;;5088439;28;20032;-79
2021/01/23 19:14:30;;;;;;;5.18;1.88;;;;;;;;;;5082643;28;20663;-80
2021/01/23 19:19:15;;;;;;;3.90;2.28;;;;;;;;;;5119642;27;20759;-81
2021/01/23 19:21:40;;;;;;;3.28;1.75;;;;;;;;;;5100290;28;20111;-82
2021/01/23 19:24:06;;;;;;;5.25;2.83;;;;;;;;;;5101722;28;20102;-80
2021/01/23 19:26:32;;;;;;;5.22;1.95;;;;;;;;;;5107063;28;20039;-81
2021/01/23 19:28:58;;;;;;;3.47;1.88;;;;;;;;;;5103286;28;20048;-81
2021/01/23 19:31:27;;;;;;;3.78;1.88;;;;;;;;;;5093603;28;20016;-81
2021/01/23 19:33:55;;;;;;;4.95;2.08;;;;;;;;;;5104754;28;20042;-80
2021/01/23 19:38:40;;;;;;;4.18;2.03;;;;;;;;;;5105597;27;20623;-81
2021/01/23 19:41:06;;;;;;;4.35;1.85;;;;;;;;;;5117997;27;20028;-81
2021/01/23 19:43:31;;;;;;;3.33;1.70;;;;;;;;;;5110046;28;20123;-81
2021/01/23 19:45:57;;;;;;;4.50;2.13;;;;;;;;;;5101247;28;20027;-80
2021/01/23 19:48:23;;;;;;;2.92;1.40;;;;;;;;;;5101382;28;20035;-81
2021/01/23 19:50:49;;;;;;;3.10;1.23;;;;;;;;;;5103340;28;20439;-80
2021/01/23 19:53:15;;;;;;;3.72;1.52;;;;;;;;;;5093779;28;20012;-82
2021/01/23 19:55:40;;;;;;;3.67;2.10;;;;;;;;;;5086817;28;20032;-82
2021/01/23 19:58:06;;;;;;;3.20;1.60;;;;;;;;;;5095600;28;20630;-81
2021/01/23 20:00:32;;;;;;;3.42;1.88;;;;;;;;;;5094003;28;20119;-81
2021/01/23 20:02:57;;;;;;;4.18;2.13;;;;;;;;;;5097505;28;20019;-79
2021/01/23 20:05:25;;;;;;;4.43;2.25;;;;;;;;;;5091206;28;20016;-82
2021/01/23 20:07:51;;;;;;;5.07;2.63;;;;;;;;;;5097098;28;20107;-81
2021/01/23 20:10:16;;;;;;;6.22;2.83;;;;;;;;;;5091805;28;20028;-82
2021/01/23 20:12:42;;;;;;;5.22;2.45;;;;;;;;;;5092420;28;20036;-81
2021/01/23 20:15:08;;;;;;;4.53;2.67;;;;;;;;;;5104174;27;20029;-79
2021/01/23 20:17:34;;;;;;;5.05;2.50;;;;;;;;;;5090396;28;20518;-80
2021/01/23 20:20:00;;;;;;;4.03;2.10;;;;;;;;;;5102450;28;20015;-82
2021/01/23 20:22:25;;;;;;;2.50;1.48;;;;;;;;;;5106561;27;20564;-81
2021/01/23 20:24:51;;;;;;;2.75;1.33;;;;;;;;;;5116111;28;20047;-82
2021/01/23 20:27:17;;;;;;;3.33;1.60;;;;;;;;;;5097500;28;20027;-81
2021/01/23 20:29:42;;;;;;;5.20;1.52;;;;;;;;;;5103842;28;20028;-80
2021/01/23 20:32:08;;;;;;;5.90;2.63;;;;;;;;;;5116615;28;20031;-81
2021/01/23 20:34:34;;;;;;;4.13;1.85;;;;;;;;;;5114061;28;20027;-82
2021/01/23 20:36:59;;;;;;;4.00;1.30;;;;;;;;;;5105573;28;20029;-81
2021/01/23 20:39:25;;;;;;;3.67;2.00;;;;;;;;;;5097462;28;20134;-81
2021/01/23 20:41:51;;;;;;;4.05;2.60;;;;;;;;;;5115643;28;20103;-81